Date,TemperatureHighF,TemperatureAvgF,TemperatureLowF,DewpointHighF,DewpointAvgF,DewpointLowF,HumidityHigh,HumidityAvg,HumidityLow,PressureMaxIn,PressureMinIn,WindSpeedMaxMPH,WindSpeedAvgMPH,GustSpeedMaxMPH,PrecipitationSumIn
2013-10-1,53.1,45.1,39.4,29.1,20.5,14.5,58,38,26,27.76,27.55,6,1,6,0.16
2013-10-2,53.1,44.6,35.8,35.7,18.7,2.5,66,40,13,27.79,27.67,6,0,6,0.00
2013-10-3,63.3,44.1,30.6,21.8,9.7,-1.6,50,28,11,28.02,27.67,10,1,10,0.00
2013-10-4,64.2,36.9,25.7,26.8,9.4,-1.6,54,36,11,28.14,28.02,6,0,6,0.00
2013-10-5,67.1,42.9,27.9,25.6,9.5,1.7,51,30,10,28.05,27.91,7,1,7,0.00
2013-10-6,72.0,45.0,28.4,32.3,11.8,3.2,60,31,9,27.94,27.64,8,1,8,0.00
2013-10-7,64.0,43.6,29.7,31.5,16.4,4.9,56,37,11,27.64,27.49,13,1,13,0.00
2013-10-8,49.3,41.8,33.6,34.3,22.6,14.1,58,46,33,27.67,27.55,5,0,5,0.43
2013-10-9,58.8,41.9,32.0,33.3,20.4,3.7,70,46,12,27.73,27.55,7,0,7,0.00
2013-10-10,52.7,43.3,29.5,34.0,21.7,11.3,63,44,21,27.64,27.52,6,0,6,0.00
2013-10-11,59.9,39.5,28.9,28.0,14.1,-0.2,63,40,12,27.76,27.64,6,1,6,0.00
2013-10-12,58.5,43.4,29.1,22.3,9.5,-0.9,50,27,12,27.79,27.70,7,1,8,0.00
2013-10-13,61.2,38.5,26.6,27.1,8.4,-0.2,59,32,11,27.94,27.79,8,1,8,0.00
2013-10-14,61.7,38.1,24.6,25.5,7.1,-3.7,55,32,11,28.05,27.91,9,1,9,0.00
2013-10-15,60.4,37.6,23.4,23.6,7.3,-1.6,53,32,12,28.05,27.82,7,1,7,0.00
2013-10-16,64.6,42.2,28.8,23.7,11.2,0.4,48,31,11,27.82,27.76,6,0,6,0.00
2013-10-17,61.9,38.9,26.4,26.8,10.8,2.5,53,35,11,27.91,27.82,6,0,6,0.00
2013-10-18,61.2,38.3,25.3,32.0,12.3,0.5,58,38,11,27.96,27.85,8,0,8,0.00
2013-10-19,63.5,41.4,28.6,28.9,13.3,2.3,55,36,11,27.85,27.73,8,0,8,0.00
2013-10-20,64.2,40.5,25.9,25.1,11.9,3.4,53,35,11,27.82,27.76,6,1,6,0.00
2013-10-21,66.9,42.1,28.2,33.7,15.9,4.8,63,39,10,27.91,27.82,6,0,6,0.00
2013-10-22,63.0,44.6,29.5,36.9,23.5,9.3,71,47,13,27.91,27.79,8,1,8,0.00
2013-10-23,57.4,45.1,39.2,37.3,27.8,15.3,73,53,19,27.88,27.76,9,1,9,0.00
2013-10-24,62.6,45.0,29.7,36.0,24.3,8.7,72,49,13,27.82,27.76,9,1,9,0.00
2013-10-25,53.1,42.9,28.9,36.2,27.2,11.7,72,55,27,27.94,27.82,9,1,9,0.00
2013-10-26,52.0,41.5,32.0,35.3,26.6,14.7,73,57,26,27.96,27.73,9,1,9,0.00
2013-10-27,49.1,40.6,33.4,34.7,19.5,-3.8,68,47,15,27.73,27.49,13,2,13,0.08
2013-10-28,45.7,35.5,30.2,17.8,0.6,-9.4,53,25,13,27.70,27.58,10,3,14,0.08
2013-10-29,52.3,34.2,23.9,4.0,-3.5,-13.5,37,20,13,27.67,27.61,9,1,9,0.08
2013-10-30,47.5,32.4,20.3,16.1,3.8,-2.5,46,32,14,27.73,27.64,6,0,6,0.08
2013-10-31,53.8,40.0,27.9,24.5,13.8,5.6,48,35,15,27.79,27.67,7,1,7,0.08